Time;durP1;ratioP1;P1;durP2;ratioP2;P2;SDS_P1;SDS_P2;PMS_P1;PMS_P2;Temp;Humidity;BMP_temperature;BMP_pressure;BME280_temperature;BME280_humidity;BME280_pressure;Samples;Min_cycle;Max_cycle;Signal;HPM_P1;HPM_P2
2023/03/04 00:01:03;;;;;;;27.30;17.08;;;;;;;;;;5094757;28;20283;-65
2023/03/04 00:03:30;;;;;;;25.73;15.80;;;;;;;;;;5094652;28;20291;-66
2023/03/04 00:05:57;;;;;;;24.95;15.20;;;;;;;;;;5094634;28;20279;-66
2023/03/04 00:08:24;;;;;;;22.25;14.93;;;;;;;;;;5094541;28;20280;-66
2023/03/04 00:10:53;;;;;;;31.77;18.13;;;;;;;;;;5094321;28;20283;-66
2023/03/04 00:13:21;;;;;;;23.98;15.13;;;;;;;;;;5094565;28;20602;-67
2023/03/04 00:15:48;;;;;;;25.00;16.10;;;;;;;;;;5094266;28;20220;-64
2023/03/04 00:18:15;;;;;;;27.48;17.98;;;;;;;;;;5094422;28;20199;-65
2023/03/04 00:20:42;;;;;;;23.10;15.80;;;;;;;;;;5094439;28;20284;-66
2023/03/04 00:23:09;;;;;;;28.52;16.90;;;;;;;;;;5094216;28;20185;-67
2023/03/04 00:25:36;;;;;;;24.83;16.27;;;;;;;;;;5094205;28;20197;-66
2023/03/04 00:28:04;;;;;;;27.08;16.00;;;;;;;;;;5094293;28;20217;-65
2023/03/04 00:30:32;;;;;;;24.60;15.98;;;;;;;;;;5094213;28;20281;-65
2023/03/04 00:32:59;;;;;;;25.55;15.18;;;;;;;;;;5094189;28;20196;-67
2023/03/04 00:35:26;;;;;;;26.73;16.85;;;;;;;;;;5093965;28;20243;-66
2023/03/04 00:37:53;;;;;;;22.70;14.90;;;;;;;;;;5093899;28;20196;-66
2023/03/04 00:40:20;;;;;;;23.42;16.42;;;;;;;;;;5094060;28;20229;-66
2023/03/04 00:42:47;;;;;;;25.52;15.98;;;;;;;;;;5094053;28;20220;-66
2023/03/04 00:45:15;;;;;;;31.38;17.23;;;;;;;;;;5093873;28;20234;-65
2023/03/04 00:47:42;;;;;;;27.45;16.00;;;;;;;;;;5093788;28;20227;-66
2023/03/04 00:50:10;;;;;;;24.63;16.17;;;;;;;;;;5093668;28;20189;-66
2023/03/04 00:52:37;;;;;;;28.95;16.77;;;;;;;;;;5093697;28;20216;-67
2023/03/04 00:55:04;;;;;;;28.30;15.02;;;;;;;;;;5093002;28;20302;-66
2023/03/04 00:57:31;;;;;;;26.42;16.35;;;;;;;;;;5093406;28;20194;-66
2023/03/04 00:59:58;;;;;;;26.98;14.52;;;;;;;;;;5093930;28;20189;-66
2023/03/04 01:02:27;;;;;;;26.17;15.90;;;;;;;;;;5093662;28;20189;-67
2023/03/04 01:04:54;;;;;;;29.40;16.75;;;;;;;;;;5093629;28;20221;-66
2023/03/04 01:07:21;;;;;;;28.55;16.92;;;;;;;;;;5093702;28;20276;-66
2023/03/04 01:09:48;;;;;;;30.00;17.45;;;;;;;;;;5093572;28;20197;-66
2023/03/04 01:12:15;;;;;;;26.85;15.70;;;;;;;;;;5093524;28;20287;-67
2023/03/04 01:14:42;;;;;;;24.90;15.25;;;;;;;;;;5093371;28;20691;-66
2023/03/04 01:17:10;;;;;;;24.00;14.80;;;;;;;;;;5093201;28;20255;-66
2023/03/04 01:19:39;;;;;;;22.05;14.32;;;;;;;;;;5093124;28;20192;-65
2023/03/04 01:22:06;;;;;;;26.30;14.48;;;;;;;;;;5093326;28;20582;-65
2023/03/04 01:24:33;;;;;;;27.08;14.43;;;;;;;;;;5093265;28;20190;-67
2023/03/04 01:27:00;;;;;;;26.23;13.32;;;;;;;;;;5093263;28;20279;-66
2023/03/04 01:29:27;;;;;;;26.50;14.50;;;;;;;;;;5093081;28;20189;-66
2023/03/04 01:31:54;;;;;;;22.42;12.25;;;;;;;;;;5092942;28;20192;-66
2023/03/04 01:34:21;;;;;;;28.98;12.32;;;;;;;;;;5092937;28;20234;-64
2023/03/04 01:36:49;;;;;;;27.40;13.27;;;;;;;;;;5093078;28;20705;-64
2023/03/04 01:39:16;;;;;;;25.58;12.98;;;;;;;;;;5093083;28;20679;-64
2023/03/04 01:41:43;;;;;;;25.27;13.20;;;;;;;;;;5093097;28;20196;-64
2023/03/04 01:44:11;;;;;;;25.00;13.48;;;;;;;;;;5093027;28;20616;-64
2023/03/04 01:46:38;;;;;;;18.98;12.13;;;;;;;;;;5092920;28;20279;-64
2023/03/04 01:49:07;;;;;;;18.98;10.50;;;;;;;;;;5093135;28;20231;-64
2023/03/04 01:51:34;;;;;;;26.05;12.90;;;;;;;;;;5093069;28;20286;-64
2023/03/04 01:54:02;;;;;;;18.17;10.75;;;;;;;;;;5092963;28;20189;-64
2023/03/04 01:56:30;;;;;;;28.58;12.27;;;;;;;;;;5092675;28;20219;-64
2023/03/04 01:59:11;;;;;;;25.50;12.20;;;;;;;;;;5092801;28;20191;-64
2023/03/04 02:01:39;;;;;;;20.00;11.15;;;;;;;;;;5092942;28;20670;-64
2023/03/04 02:04:07;;;;;;;30.30;12.18;;;;;;;;;;5092677;28;20644;-64
2023/03/04 02:06:34;;;;;;;17.85;12.38;;;;;;;;;;5093201;28;20672;-64
2023/03/04 02:09:02;;;;;;;26.90;11.60;;;;;;;;;;5096810;28;20629;-64
2023/03/04 02:11:29;;;;;;;22.90;12.25;;;;;;;;;;5096708;28;20249;-64
2023/03/04 02:13:57;;;;;;;23.17;11.93;;;;;;;;;;5096681;28;20280;-64
2023/03/04 02:16:24;;;;;;;26.70;12.27;;;;;;;;;;5096381;28;20685;-65
2023/03/04 02:18:51;;;;;;;23.55;11.80;;;;;;;;;;5096763;28;20543;-64
2023/03/04 02:21:20;;;;;;;22.42;10.90;;;;;;;;;;5096689;28;20220;-64
2023/03/04 02:23:50;;;;;;;17.75;10.40;;;;;;;;;;5096525;28;20244;-65
2023/03/04 02:26:19;;;;;;;27.35;11.05;;;;;;;;;;5096433;28;20220;-64
2023/03/04 02:28:48;;;;;;;18.52;9.85;;;;;;;;;;5096628;28;20193;-64
2023/03/04 02:31:21;;;;;;;21.02;9.38;;;;;;;;;;5096307;28;20189;-64
2023/03/04 02:33:48;;;;;;;23.52;8.95;;;;;;;;;;5096487;28;20276;-64
2023/03/04 02:36:15;;;;;;;16.55;8.75;;;;;;;;;;5096346;28;20307;-64
2023/03/04 02:38:42;;;;;;;16.17;8.52;;;;;;;;;;5096202;28;20283;-65
2023/03/04 02:41:12;;;;;;;21.33;9.77;;;;;;;;;;5096362;28;20707;-64
2023/03/04 02:43:41;;;;;;;19.88;9.65;;;;;;;;;;5096371;28;20221;-65
2023/03/04 02:46:11;;;;;;;21.07;8.60;;;;;;;;;;5096062;28;20724;-64
2023/03/04 02:48:38;;;;;;;18.15;7.80;;;;;;;;;;5096174;28;20536;-64
2023/03/04 02:51:05;;;;;;;16.88;8.20;;;;;;;;;;5095940;28;20228;-64
2023/03/04 02:53:32;;;;;;;19.25;7.85;;;;;;;;;;5095858;28;20246;-65
2023/03/04 02:55:59;;;;;;;27.55;7.93;;;;;;;;;;5096067;28;20245;-64
2023/03/04 02:58:26;;;;;;;14.00;7.70;;;;;;;;;;5095983;28;20218;-64
2023/03/04 03:00:54;;;;;;;20.90;7.72;;;;;;;;;;5096095;28;20226;-64
2023/03/04 03:03:21;;;;;;;20.13;7.28;;;;;;;;;;5095786;28;20193;-64
2023/03/04 03:05:48;;;;;;;17.83;7.35;;;;;;;;;;5095671;28;20195;-65
2023/03/04 03:08:15;;;;;;;15.77;8.30;;;;;;;;;;5095886;28;20577;-65
2023/03/04 03:10:42;;;;;;;15.33;8.00;;;;;;;;;;5095822;28;20232;-64
2023/03/04 03:13:09;;;;;;;12.05;6.45;;;;;;;;;;5095830;28;20876;-65
2023/03/04 03:15:40;;;;;;;24.13;6.25;;;;;;;;;;5095302;28;20289;-65
2023/03/04 03:18:09;;;;;;;14.02;6.55;;;;;;;;;;5094817;28;20280;-65
2023/03/04 03:20:36;;;;;;;18.38;7.75;;;;;;;;;;5095122;28;20193;-64
2023/03/04 03:23:03;;;;;;;11.57;6.70;;;;;;;;;;5095521;28;20563;-65
2023/03/04 03:25:30;;;;;;;19.38;6.70;;;;;;;;;;5095507;28;21029;-65
2023/03/04 03:27:57;;;;;;;27.83;8.40;;;;;;;;;;5095262;28;20219;-64
2023/03/04 03:30:24;;;;;;;11.77;7.20;;;;;;;;;;5095182;28;20450;-64
2023/03/04 03:32:51;;;;;;;12.15;6.55;;;;;;;;;;5095209;28;20623;-64
2023/03/04 03:35:20;;;;;;;15.35;6.95;;;;;;;;;;5095156;28;20466;-64
2023/03/04 03:37:48;;;;;;;15.30;7.32;;;;;;;;;;5095237;28;20256;-65
2023/03/04 03:40:15;;;;;;;17.20;6.95;;;;;;;;;;5095183;28;20196;-64
2023/03/04 03:42:42;;;;;;;14.63;7.30;;;;;;;;;;5094974;28;20287;-64
2023/03/04 03:45:09;;;;;;;16.23;6.60;;;;;;;;;;5094975;28;20543;-64
2023/03/04 03:47:36;;;;;;;17.50;7.10;;;;;;;;;;5094939;28;20229;-64
2023/03/04 03:50:04;;;;;;;14.30;7.03;;;;;;;;;;5095100;28;20381;-64
2023/03/04 03:52:32;;;;;;;16.48;7.30;;;;;;;;;;5094963;28;20698;-64
2023/03/04 03:55:00;;;;;;;13.00;6.45;;;;;;;;;;5094720;28;20284;-64
2023/03/04 03:57:27;;;;;;;17.33;7.75;;;;;;;;;;5094653;28;20219;-65
2023/03/04 03:59:54;;;;;;;21.13;7.35;;;;;;;;;;5094553;28;20249;-64
2023/03/04 04:02:21;;;;;;;14.77;7.43;;;;;;;;;;5094573;28;20713;-66
2023/03/04 04:04:49;;;;;;;14.32;6.85;;;;;;;;;;5094754;28;20189;-64
2023/03/04 04:07:16;;;;;;;20.13;7.78;;;;;;;;;;5094634;28;20279;-65
2023/03/04 04:09:44;;;;;;;14.18;7.13;;;;;;;;;;5094641;28;20189;-64
2023/03/04 04:12:13;;;;;;;16.88;6.45;;;;;;;;;;5094490;28;20188;-64
2023/03/04 04:14:40;;;;;;;14.57;6.93;;;;;;;;;;5094355;28;20269;-64
2023/03/04 04:17:07;;;;;;;17.35;7.93;;;;;;;;;;5094180;28;20633;-65
2023/03/04 04:19:34;;;;;;;14.52;6.35;;;;;;;;;;5094437;28;20235;-64
2023/03/04 04:22:01;;;;;;;13.57;5.38;;;;;;;;;;5094384;28;20275;-65
2023/03/04 04:24:29;;;;;;;18.88;6.75;;;;;;;;;;5094244;28;20256;-64
2023/03/04 04:26:57;;;;;;;11.05;5.30;;;;;;;;;;5094175;28;20220;-65
2023/03/04 04:29:24;;;;;;;15.30;6.72;;;;;;;;;;5094162;28;20217;-64
2023/03/04 04:31:51;;;;;;;13.18;6.10;;;;;;;;;;5093997;28;20313;-65
2023/03/04 04:34:18;;;;;;;19.05;6.60;;;;;;;;;;5094159;28;20505;-65
2023/03/04 04:36:45;;;;;;;13.40;5.55;;;;;;;;;;5093908;28;20273;-64
2023/03/04 04:39:12;;;;;;;19.00;5.95;;;;;;;;;;5094017;28;20220;-64
2023/03/04 04:41:40;;;;;;;10.57;5.38;;;;;;;;;;5093783;28;20201;-65
2023/03/04 04:44:09;;;;;;;13.10;5.67;;;;;;;;;;5094018;28;20252;-64
2023/03/04 04:46:36;;;;;;;14.57;5.75;;;;;;;;;;5093998;28;20929;-64
2023/03/04 04:49:04;;;;;;;12.68;5.53;;;;;;;;;;5093834;28;20185;-65
2023/03/04 04:51:31;;;;;;;11.60;5.37;;;;;;;;;;5093754;28;20278;-64
2023/03/04 04:53:59;;;;;;;16.77;6.57;;;;;;;;;;5093713;28;20575;-65
2023/03/04 04:56:26;;;;;;;17.38;6.57;;;;;;;;;;5093612;28;20252;-64
2023/03/04 04:58:54;;;;;;;15.32;5.68;;;;;;;;;;5093578;28;20666;-64
2023/03/04 05:01:22;;;;;;;21.85;8.02;;;;;;;;;;5093699;28;20604;-65
2023/03/04 05:03:52;;;;;;;12.90;5.32;;;;;;;;;;5093527;28;20211;-64
2023/03/04 05:06:19;;;;;;;15.20;5.28;;;;;;;;;;5093428;28;20732;-64
2023/03/04 05:08:46;;;;;;;14.90;6.87;;;;;;;;;;5093342;28;20227;-67
2023/03/04 05:11:13;;;;;;;15.30;5.77;;;;;;;;;;5093649;28;20454;-66
2023/03/04 05:13:40;;;;;;;18.17;6.82;;;;;;;;;;5093333;28;20443;-67
2023/03/04 05:16:08;;;;;;;12.35;5.13;;;;;;;;;;5093028;28;20223;-64
2023/03/04 05:18:36;;;;;;;16.27;4.90;;;;;;;;;;5093428;28;20246;-64
2023/03/04 05:21:04;;;;;;;12.30;4.90;;;;;;;;;;5093256;28;20242;-64
2023/03/04 05:23:32;;;;;;;15.45;7.07;;;;;;;;;;5093453;28;20192;-64
2023/03/04 05:25:59;;;;;;;14.18;4.25;;;;;;;;;;5093403;28;20249;-66
2023/03/04 05:28:26;;;;;;;12.20;4.43;;;;;;;;;;5093288;28;20192;-64
2023/03/04 05:30:53;;;;;;;12.40;5.40;;;;;;;;;;5093167;28;20193;-64
2023/03/04 05:33:20;;;;;;;15.55;5.03;;;;;;;;;;5093135;28;20446;-64
2023/03/04 05:35:49;;;;;;;15.40;4.10;;;;;;;;;;5093051;28;20220;-64
2023/03/04 05:38:17;;;;;;;10.75;5.05;;;;;;;;;;5093173;28;20244;-64
2023/03/04 05:40:44;;;;;;;9.63;4.45;;;;;;;;;;5093075;28;20283;-64
2023/03/04 05:43:11;;;;;;;11.05;4.65;;;;;;;;;;5092554;28;20680;-64
2023/03/04 05:45:38;;;;;;;8.70;4.53;;;;;;;;;;5093037;28;20235;-64
2023/03/04 05:48:06;;;;;;;11.77;3.88;;;;;;;;;;5092973;28;20644;-64
2023/03/04 05:50:33;;;;;;;10.35;4.13;;;;;;;;;;5092860;28;20228;-64
2023/03/04 05:53:01;;;;;;;6.85;4.03;;;;;;;;;;5093094;28;20220;-64
2023/03/04 05:55:28;;;;;;;9.60;3.80;;;;;;;;;;5093016;28;20196;-64
2023/03/04 05:57:56;;;;;;;10.95;4.03;;;;;;;;;;5092872;28;20227;-64
2023/03/04 06:00:23;;;;;;;10.48;3.88;;;;;;;;;;5092707;28;20250;-64
2023/03/04 06:02:50;;;;;;;9.17;4.10;;;;;;;;;;5092888;28;20200;-64
2023/03/04 06:05:17;;;;;;;9.27;3.33;;;;;;;;;;5092972;28;20504;-64
2023/03/04 06:07:44;;;;;;;6.63;3.20;;;;;;;;;;5092927;28;20279;-64
2023/03/04 06:10:14;;;;;;;7.70;4.23;;;;;;;;;;5092917;28;20585;-64
2023/03/04 06:12:41;;;;;;;8.43;3.13;;;;;;;;;;5092826;28;20486;-64
2023/03/04 06:15:09;;;;;;;10.10;3.35;;;;;;;;;;5092749;28;20866;-64
2023/03/04 06:17:36;;;;;;;10.03;3.20;;;;;;;;;;5092398;28;20255;-65
2023/03/04 06:20:05;;;;;;;13.17;3.20;;;;;;;;;;5092670;28;20482;-65
2023/03/04 06:22:32;;;;;;;9.00;3.20;;;;;;;;;;5092801;28;20566;-65
2023/03/04 06:24:59;;;;;;;7.63;3.22;;;;;;;;;;5092684;28;20453;-65
2023/03/04 06:27:27;;;;;;;9.73;3.37;;;;;;;;;;5092637;28;20309;-65
2023/03/04 06:29:55;;;;;;;7.43;3.50;;;;;;;;;;5092933;28;20537;-65
2023/03/04 06:32:22;;;;;;;10.40;3.30;;;;;;;;;;5092765;28;20447;-65
2023/03/04 06:34:49;;;;;;;11.70;3.57;;;;;;;;;;5092695;28;20538;-65
2023/03/04 06:37:16;;;;;;;7.87;3.10;;;;;;;;;;5092568;28;20517;-65
2023/03/04 06:39:43;;;;;;;9.60;3.15;;;;;;;;;;5092573;28;20481;-65
2023/03/04 06:42:10;;;;;;;6.47;2.80;;;;;;;;;;5092503;28;20594;-65
2023/03/04 06:44:38;;;;;;;11.88;3.50;;;;;;;;;;5092349;28;20203;-65
2023/03/04 06:47:05;;;;;;;11.30;4.10;;;;;;;;;;5092553;28;20198;-65
2023/03/04 06:49:32;;;;;;;6.90;3.20;;;;;;;;;;5092540;28;20533;-65
2023/03/04 06:51:59;;;;;;;13.20;3.40;;;;;;;;;;5092472;28;20478;-65
2023/03/04 06:54:26;;;;;;;6.25;3.35;;;;;;;;;;5094109;28;20501;-65
2023/03/04 06:56:53;;;;;;;10.10;3.60;;;;;;;;;;5095730;28;20208;-65
2023/03/04 06:59:20;;;;;;;8.25;3.35;;;;;;;;;;5095849;28;20514;-65
2023/03/04 07:01:48;;;;;;;13.55;3.80;;;;;;;;;;5095749;28;20189;-65
2023/03/04 07:04:15;;;;;;;6.63;3.20;;;;;;;;;;5095912;28;20279;-65
2023/03/04 07:06:42;;;;;;;10.70;3.27;;;;;;;;;;5095771;28;20551;-64
2023/03/04 07:09:09;;;;;;;17.87;3.50;;;;;;;;;;5095836;28;20447;-65
2023/03/04 07:11:36;;;;;;;8.70;3.63;;;;;;;;;;5095595;28;20534;-65
2023/03/04 07:14:03;;;;;;;5.20;3.10;;;;;;;;;;5095757;28;20670;-64
2023/03/04 07:16:30;;;;;;;5.88;2.95;;;;;;;;;;5095554;28;20509;-65
2023/03/04 07:18:58;;;;;;;7.73;3.50;;;;;;;;;;5095634;28;20307;-65
2023/03/04 07:21:25;;;;;;;11.73;3.70;;;;;;;;;;5095413;28;20550;-65
2023/03/04 07:23:52;;;;;;;7.25;3.50;;;;;;;;;;5095426;28;20447;-65
2023/03/04 07:26:19;;;;;;;8.37;3.90;;;;;;;;;;5095345;28;20286;-65
2023/03/04 07:28:46;;;;;;;7.37;3.57;;;;;;;;;;5095474;28;20451;-65
2023/03/04 07:31:18;;;;;;;9.00;4.40;;;;;;;;;;5095470;28;20451;-65
2023/03/04 07:33:45;;;;;;;12.45;6.03;;;;;;;;;;5095269;28;20883;-65
2023/03/04 07:36:14;;;;;;;11.47;3.97;;;;;;;;;;5095160;28;20258;-65
2023/03/04 07:38:43;;;;;;;10.27;4.03;;;;;;;;;;5094903;28;20489;-65
2023/03/04 07:41:10;;;;;;;8.27;3.90;;;;;;;;;;5095001;28;20537;-66
2023/03/04 07:43:37;;;;;;;6.90;3.45;;;;;;;;;;5095179;28;20442;-66
2023/03/04 07:46:05;;;;;;;17.08;4.85;;;;;;;;;;5095095;28;20279;-66
2023/03/04 07:48:32;;;;;;;8.65;3.55;;;;;;;;;;5094966;28;20242;-66
2023/03/04 07:51:06;;;;;;;9.67;4.77;;;;;;;;;;5094904;28;20196;-66
2023/03/04 07:53:35;;;;;;;10.05;3.83;;;;;;;;;;5094996;28;20487;-66
2023/03/04 07:56:02;;;;;;;5.35;3.58;;;;;;;;;;5094719;28;20219;-67
2023/03/04 07:58:29;;;;;;;6.30;3.58;;;;;;;;;;5094822;28;20216;-66
2023/03/04 08:00:56;;;;;;;8.10;4.30;;;;;;;;;;5094709;28;20193;-66
2023/03/04 08:03:23;;;;;;;5.93;3.83;;;;;;;;;;5094564;28;20239;-66
2023/03/04 08:05:51;;;;;;;14.07;5.17;;;;;;;;;;5094014;28;20457;-66
2023/03/04 08:08:18;;;;;;;13.13;4.43;;;;;;;;;;5094680;28;20509;-66
2023/03/04 08:10:46;;;;;;;9.60;4.57;;;;;;;;;;5094690;28;20541;-66
2023/03/04 08:13:13;;;;;;;7.97;4.03;;;;;;;;;;5094500;28;20873;-66
2023/03/04 08:15:41;;;;;;;6.77;4.13;;;;;;;;;;5094195;28;20709;-66
2023/03/04 08:18:08;;;;;;;3.37;3.07;;;;;;;;;;5094303;28;20846;-66
2023/03/04 08:20:35;;;;;;;5.67;3.93;;;;;;;;;;5094218;28;20958;-66
2023/03/04 08:23:03;;;;;;;6.83;5.10;;;;;;;;;;5094158;28;20542;-66
2023/03/04 08:25:30;;;;;;;6.60;3.80;;;;;;;;;;5094273;28;20819;-66
2023/03/04 08:27:59;;;;;;;7.60;3.67;;;;;;;;;;5094013;28;20948;-66
2023/03/04 08:30:26;;;;;;;6.87;3.87;;;;;;;;;;5094133;28;20545;-66
2023/03/04 08:32:53;;;;;;;5.83;4.17;;;;;;;;;;5093965;28;20445;-66
2023/03/04 08:35:20;;;;;;;5.17;3.83;;;;;;;;;;5094175;28;20848;-66
2023/03/04 08:37:47;;;;;;;8.05;4.30;;;;;;;;;;5094092;28;20481;-66
2023/03/04 08:40:14;;;;;;;4.03;3.47;;;;;;;;;;5094134;28;20185;-66
2023/03/04 08:42:42;;;;;;;5.93;3.53;;;;;;;;;;5093803;28;20487;-66
2023/03/04 08:45:11;;;;;;;6.27;4.13;;;;;;;;;;5093926;28;20455;-66
2023/03/04 08:47:39;;;;;;;7.17;4.50;;;;;;;;;;5093717;28;20948;-66
2023/03/04 08:50:07;;;;;;;5.87;3.20;;;;;;;;;;5093588;28;20450;-66
2023/03/04 08:52:34;;;;;;;4.73;4.00;;;;;;;;;;5093850;28;20530;-66
2023/03/04 08:55:01;;;;;;;3.93;3.63;;;;;;;;;;5093793;28;20454;-67
2023/03/04 08:57:28;;;;;;;4.80;3.07;;;;;;;;;;5093610;28;20467;-66
2023/03/04 08:59:55;;;;;;;7.77;3.73;;;;;;;;;;5093513;28;20864;-66
2023/03/04 09:02:24;;;;;;;4.70;3.07;;;;;;;;;;5093783;28;20482;-66
2023/03/04 09:04:51;;;;;;;5.23;2.83;;;;;;;;;;5093745;28;20515;-66
2023/03/04 09:07:18;;;;;;;5.97;3.10;;;;;;;;;;5093520;28;20616;-65
2023/03/04 09:09:45;;;;;;;5.70;2.50;;;;;;;;;;5093304;28;20451;-66
2023/03/04 09:12:11;;;;;;;2.93;2.63;;;;;;;;;;5093387;28;20489;-66
2023/03/04 09:14:39;;;;;;;3.27;2.53;;;;;;;;;;5093340;28;20875;-66
2023/03/04 09:17:06;;;;;;;7.37;3.00;;;;;;;;;;5092311;28;20990;-66
2023/03/04 09:19:34;;;;;;;5.00;2.40;;;;;;;;;;5093047;28;20483;-65
2023/03/04 09:22:01;;;;;;;3.20;2.30;;;;;;;;;;5093309;28;20455;-66
2023/03/04 09:24:28;;;;;;;4.17;2.30;;;;;;;;;;5093236;28;20810;-66
2023/03/04 09:26:55;;;;;;;7.43;2.57;;;;;;;;;;5093152;28;20540;-65
2023/03/04 09:29:23;;;;;;;5.80;3.37;;;;;;;;;;5093035;28;20455;-65
2023/03/04 09:31:50;;;;;;;5.17;2.90;;;;;;;;;;5092986;28;20458;-66
2023/03/04 09:34:17;;;;;;;9.93;2.53;;;;;;;;;;5093228;28;21016;-66
2023/03/04 09:36:46;;;;;;;2.93;2.40;;;;;;;;;;5093126;28;20841;-65
2023/03/04 09:39:13;;;;;;;4.60;2.60;;;;;;;;;;5093004;28;20483;-66
2023/03/04 09:41:42;;;;;;;6.47;2.17;;;;;;;;;;5092897;28;20443;-66
2023/03/04 09:44:14;;;;;;;4.27;2.13;;;;;;;;;;5093042;28;20446;-66
2023/03/04 09:46:43;;;;;;;9.83;2.73;;;;;;;;;;5093290;28;21005;-65
2023/03/04 09:49:11;;;;;;;5.40;2.03;;;;;;;;;;5093102;28;20561;-66
2023/03/04 09:51:44;;;;;;;3.77;1.80;;;;;;;;;;5092678;28;20526;-65
2023/03/04 09:54:15;;;;;;;4.13;1.80;;;;;;;;;;5092864;28;20848;-65
2023/03/04 09:56:43;;;;;;;5.93;1.60;;;;;;;;;;5093124;28;20447;-66
2023/03/04 09:59:15;;;;;;;5.13;1.67;;;;;;;;;;5092734;28;20518;-66
2023/03/04 10:01:46;;;;;;;5.57;1.90;;;;;;;;;;5093133;28;20455;-66
2023/03/04 10:04:14;;;;;;;3.23;1.73;;;;;;;;;;5092798;28;20442;-66
2023/03/04 10:06:42;;;;;;;5.40;1.73;;;;;;;;;;5093118;28;20983;-66
2023/03/04 10:09:13;;;;;;;4.03;1.73;;;;;;;;;;5092905;28;20787;-66
2023/03/04 10:11:42;;;;;;;8.07;2.17;;;;;;;;;;5092749;28;20482;-65
2023/03/04 10:14:15;;;;;;;7.53;1.80;;;;;;;;;;5092653;28;20517;-65
2023/03/04 10:16:46;;;;;;;11.33;2.10;;;;;;;;;;5092550;28;20482;-65
2023/03/04 10:19:24;;;;;;;3.73;1.90;;;;;;;;;;5092580;28;20478;-66
2023/03/04 10:21:52;;;;;;;5.20;1.63;;;;;;;;;;5092791;28;20447;-66
2023/03/04 10:24:23;;;;;;;6.17;1.67;;;;;;;;;;5092528;28;20937;-66
2023/03/04 10:26:52;;;;;;;5.37;1.60;;;;;;;;;;5092513;28;20543;-66
2023/03/04 10:29:20;;;;;;;4.57;2.00;;;;;;;;;;5095746;28;20446;-66
2023/03/04 10:31:48;;;;;;;5.00;1.80;;;;;;;;;;5096291;28;20465;-66
2023/03/04 10:34:16;;;;;;;2.93;1.57;;;;;;;;;;5096560;28;20926;-66
2023/03/04 10:36:50;;;;;;;9.60;1.80;;;;;;;;;;5096394;28;20488;-66
2023/03/04 10:39:20;;;;;;;6.70;2.17;;;;;;;;;;5096244;28;20485;-65
2023/03/04 10:41:55;;;;;;;8.27;1.87;;;;;;;;;;5096250;28;20496;-65
2023/03/04 10:44:23;;;;;;;6.33;2.13;;;;;;;;;;5096149;28;20533;-65
2023/03/04 10:46:50;;;;;;;6.50;2.00;;;;;;;;;;5096001;28;20443;-65
2023/03/04 10:49:18;;;;;;;14.80;3.20;;;;;;;;;;5096168;28;20860;-65
2023/03/04 10:51:46;;;;;;;3.53;1.73;;;;;;;;;;5096026;28;20451;-65
2023/03/04 10:54:20;;;;;;;8.80;1.90;;;;;;;;;;5095980;28;20485;-65
2023/03/04 10:56:55;;;;;;;4.83;1.53;;;;;;;;;;5095953;28;20620;-65
2023/03/04 10:59:34;;;;;;;3.60;1.90;;;;;;;;;;5096091;28;20558;-66
2023/03/04 11:02:01;;;;;;;5.00;1.80;;;;;;;;;;5095922;28;20478;-66
2023/03/04 11:04:33;;;;;;;2.27;2.07;;;;;;;;;;5095772;28;20512;-66
2023/03/04 11:07:00;;;;;;;5.53;1.90;;;;;;;;;;5095743;28;20802;-67
2023/03/04 11:09:28;;;;;;;6.17;1.93;;;;;;;;;;5095898;28;20564;-65
2023/03/04 11:11:59;;;;;;;12.33;1.80;;;;;;;;;;5095752;28;20454;-65
2023/03/04 11:14:28;;;;;;;3.90;2.40;;;;;;;;;;5095728;28;20489;-66
2023/03/04 11:16:56;;;;;;;8.77;1.80;;;;;;;;;;5095567;28;20471;-65
2023/03/04 11:19:24;;;;;;;6.33;2.40;;;;;;;;;;5095372;28;20482;-65
2023/03/04 11:21:52;;;;;;;9.93;2.67;;;;;;;;;;5095664;28;20512;-64
2023/03/04 11:24:24;;;;;;;7.97;1.97;;;;;;;;;;5095529;28;20565;-65
2023/03/04 11:26:53;;;;;;;4.80;1.80;;;;;;;;;;5095429;28;20458;-66
2023/03/04 11:29:23;;;;;;;6.23;1.90;;;;;;;;;;5095368;28;20482;-66
2023/03/04 11:31:52;;;;;;;5.77;1.90;;;;;;;;;;5095416;28;20505;-66
2023/03/04 11:34:25;;;;;;;4.90;2.50;;;;;;;;;;5095075;28;20455;-67
2023/03/04 11:36:56;;;;;;;8.93;2.30;;;;;;;;;;5095545;28;20869;-66
2023/03/04 11:39:28;;;;;;;7.33;2.70;;;;;;;;;;5094388;28;20517;-66
2023/03/04 11:41:56;;;;;;;11.57;2.10;;;;;;;;;;5095393;28;20443;-66
2023/03/04 11:44:25;;;;;;;9.07;2.30;;;;;;;;;;5095053;28;20450;-66
2023/03/04 11:46:57;;;;;;;11.37;3.10;;;;;;;;;;5095044;28;20984;-65
2023/03/04 11:49:40;;;;;;;4.60;2.00;;;;;;;;;;5095193;28;20454;-65
2023/03/04 11:52:10;;;;;;;8.17;2.40;;;;;;;;;;5094877;28;20454;-66
2023/03/04 11:54:45;;;;;;;15.93;2.97;;;;;;;;;;5094882;28;20445;-66
2023/03/04 11:57:19;;;;;;;9.07;2.17;;;;;;;;;;5094726;28;20442;-66
2023/03/04 11:59:57;;;;;;;8.50;2.40;;;;;;;;;;5094881;28;20574;-65
2023/03/04 12:02:28;;;;;;;8.63;2.43;;;;;;;;;;5094799;28;20503;-66
2023/03/04 12:05:18;;;;;;;11.10;3.07;;;;;;;;;;5094745;28;20497;-66
2023/03/04 12:07:57;;;;;;;9.30;3.27;;;;;;;;;;5079402;28;20490;-66
2023/03/04 12:10:29;;;;;;;10.87;2.70;;;;;;;;;;5094741;28;20476;-65
2023/03/04 12:13:16;;;;;;;11.80;2.70;;;;;;;;;;5094705;28;20833;-66
2023/03/04 12:15:48;;;;;;;12.70;3.40;;;;;;;;;;5094250;28;20455;-66
2023/03/04 12:18:22;;;;;;;9.63;2.97;;;;;;;;;;5094496;28;20454;-66
2023/03/04 12:20:54;;;;;;;8.73;2.47;;;;;;;;;;5094409;28;20987;-65
2023/03/04 12:23:29;;;;;;;13.90;4.00;;;;;;;;;;5094387;28;20541;-66
2023/03/04 12:25:59;;;;;;;8.30;2.70;;;;;;;;;;5094311;28;20481;-65
2023/03/04 12:28:31;;;;;;;9.80;2.80;;;;;;;;;;5094124;28;20451;-66
2023/03/04 12:31:13;;;;;;;10.77;3.70;;;;;;;;;;5094074;28;20941;-66
2023/03/04 12:33:50;;;;;;;12.47;2.67;;;;;;;;;;5091989;28;20830;-65
2023/03/04 12:36:21;;;;;;;9.17;2.60;;;;;;;;;;5094079;28;20913;-66
2023/03/04 12:38:58;;;;;;;13.80;2.67;;;;;;;;;;5093889;28;20480;-66
2023/03/04 12:41:29;;;;;;;9.70;2.93;;;;;;;;;;5093802;28;20451;-66
2023/03/04 12:44:02;;;;;;;8.67;2.73;;;;;;;;;;5094044;28;20447;-66
2023/03/04 12:46:37;;;;;;;9.20;3.20;;;;;;;;;;5093953;28;20483;-66
2023/03/04 12:49:16;;;;;;;14.10;2.43;;;;;;;;;;5093806;28;20446;-66
2023/03/04 12:51:45;;;;;;;11.73;3.30;;;;;;;;;;5093899;28;20458;-66
2023/03/04 12:54:22;;;;;;;14.47;3.10;;;;;;;;;;5093899;28;20447;-66
2023/03/04 12:56:52;;;;;;;6.90;2.77;;;;;;;;;;5093702;28;20512;-66
2023/03/04 12:59:20;;;;;;;11.80;3.83;;;;;;;;;;5093511;28;20479;-65
2023/03/04 13:01:51;;;;;;;11.20;2.57;;;;;;;;;;5093512;28;20451;-65
2023/03/04 13:04:24;;;;;;;10.50;2.83;;;;;;;;;;5093524;28;20950;-66
2023/03/04 13:06:58;;;;;;;9.80;2.77;;;;;;;;;;5093665;28;20454;-66
2023/03/04 13:09:28;;;;;;;13.70;2.90;;;;;;;;;;5093614;28;20450;-66
2023/03/04 13:12:02;;;;;;;9.70;2.63;;;;;;;;;;5093398;28;20451;-66
2023/03/04 13:14:31;;;;;;;17.20;3.70;;;;;;;;;;5093601;28;20520;-66
2023/03/04 13:17:00;;;;;;;11.03;2.70;;;;;;;;;;5093178;28;20478;-66
2023/03/04 13:19:44;;;;;;;11.60;3.13;;;;;;;;;;5093359;28;20514;-66
2023/03/04 13:22:29;;;;;;;12.43;2.40;;;;;;;;;;5093289;28;20446;-66
2023/03/04 13:24:57;;;;;;;13.70;2.87;;;;;;;;;;5093088;28;20454;-66
2023/03/04 13:27:43;;;;;;;5.73;2.17;;;;;;;;;;5093393;28;20492;-66
2023/03/04 13:30:25;;;;;;;7.67;2.57;;;;;;;;;;5093002;28;20538;-66
2023/03/04 13:32:52;;;;;;;10.00;2.80;;;;;;;;;;5092962;28;20809;-66
2023/03/04 13:35:34;;;;;;;10.23;2.37;;;;;;;;;;5092992;28;20458;-68
2023/03/04 13:38:02;;;;;;;8.83;2.30;;;;;;;;;;5092826;28;20771;-65
2023/03/04 13:40:34;;;;;;;7.40;2.33;;;;;;;;;;5092940;28;20478;-65
2023/03/04 13:43:16;;;;;;;5.03;1.90;;;;;;;;;;5093038;28;20447;-66
2023/03/04 13:45:43;;;;;;;7.77;2.50;;;;;;;;;;5092954;28;20500;-66
2023/03/04 13:48:24;;;;;;;10.00;2.30;;;;;;;;;;5092829;28;20508;-66
2023/03/04 13:50:51;;;;;;;10.40;4.30;;;;;;;;;;5093105;28;20492;-66
2023/03/04 13:53:29;;;;;;;16.10;3.27;;;;;;;;;;5093033;28;20470;-66
2023/03/04 13:56:17;;;;;;;7.63;2.80;;;;;;;;;;5092734;28;20457;-66
2023/03/04 13:58:45;;;;;;;11.13;2.60;;;;;;;;;;5087962;28;20505;-64
2023/03/04 14:01:27;;;;;;;8.13;2.47;;;;;;;;;;5092940;28;20447;-65
2023/03/04 14:03:54;;;;;;;16.33;2.53;;;;;;;;;;5095664;28;20482;-66
2023/03/04 14:06:22;;;;;;;7.80;2.20;;;;;;;;;;5096921;28;20447;-66
2023/03/04 14:08:51;;;;;;;6.20;2.07;;;;;;;;;;5097087;28;20453;-66
2023/03/04 14:11:24;;;;;;;11.57;2.60;;;;;;;;;;5096986;28;20517;-65
2023/03/04 14:13:52;;;;;;;9.23;3.13;;;;;;;;;;5096723;28;20966;-67
2023/03/04 14:16:22;;;;;;;8.23;2.20;;;;;;;;;;5096527;28;20478;-65
2023/03/04 14:18:58;;;;;;;11.57;2.47;;;;;;;;;;5096431;28;20942;-66
2023/03/04 14:21:25;;;;;;;11.03;2.50;;;;;;;;;;5096908;28;20533;-65
2023/03/04 14:24:01;;;;;;;15.97;3.10;;;;;;;;;;5096572;28;21007;-66
2023/03/04 14:26:29;;;;;;;9.57;2.60;;;;;;;;;;5096713;28;20845;-66
2023/03/04 14:28:58;;;;;;;7.23;3.00;;;;;;;;;;5096547;28;20443;-66
2023/03/04 14:31:28;;;;;;;10.33;2.67;;;;;;;;;;5096754;28;20952;-66
2023/03/04 14:33:58;;;;;;;9.83;2.30;;;;;;;;;;5096574;28;20496;-66
2023/03/04 14:36:26;;;;;;;8.10;2.77;;;;;;;;;;5096303;28;20476;-66
2023/03/04 14:38:54;;;;;;;8.90;2.10;;;;;;;;;;5096255;28;20538;-66
2023/03/04 14:41:25;;;;;;;10.00;2.60;;;;;;;;;;5096031;28;21025;-66
2023/03/04 14:43:55;;;;;;;6.90;1.93;;;;;;;;;;5096214;28;20546;-66